Time;durP1;ratioP1;P1;durP2;ratioP2;P2;SDS_P1;SDS_P2;PMS_P1;PMS_P2;Temp;Humidity;BMP_temperature;BMP_pressure;BME280_temperature;BME280_humidity;BME280_pressure;Samples;Min_cycle;Max_cycle;Signal;HPM_P1;HPM_P2
2021/11/29 00:01:09;;;;;;;33.87;16.90;;;4.90;99.90;;;;;;4306422;33;20205;-65
2021/11/29 00:03:37;;;;;;;33.27;17.80;;;4.90;99.90;;;;;;4319074;33;20174;-65
2021/11/29 00:06:05;;;;;;;29.20;17.13;;;4.90;99.90;;;;;;4318958;33;20178;-66
2021/11/29 00:08:32;;;;;;;31.27;17.40;;;4.90;99.90;;;;;;4317075;33;20213;-65
2021/11/29 00:10:59;;;;;;;37.53;18.73;;;4.90;99.90;;;;;;4317481;33;20185;-68
2021/11/29 00:13:27;;;;;;;34.57;18.03;;;4.90;99.90;;;;;;4317396;33;20185;-65
2021/11/29 00:15:54;;;;;;;31.27;17.63;;;4.90;99.90;;;;;;4318270;33;20180;-65
2021/11/29 00:18:21;;;;;;;33.23;18.23;;;4.90;99.90;;;;;;4318381;33;20207;-65
2021/11/29 00:20:49;;;;;;;31.10;17.13;;;4.90;99.90;;;;;;4318552;33;20252;-65
2021/11/29 00:23:16;;;;;;;29.47;16.57;;;4.90;99.90;;;;;;4319705;33;20184;-66
2021/11/29 00:25:44;;;;;;;29.93;16.97;;;4.90;99.90;;;;;;4317393;33;20233;-65
2021/11/29 00:28:12;;;;;;;32.43;16.87;;;4.90;99.90;;;;;;4317606;33;20232;-65
2021/11/29 00:30:40;;;;;;;31.73;17.03;;;4.90;99.90;;;;;;4318472;33;20583;-65
2021/11/29 00:33:08;;;;;;;31.13;17.03;;;4.90;99.90;;;;;;4317806;33;20204;-65
2021/11/29 00:35:35;;;;;;;28.73;16.07;;;5.00;99.90;;;;;;4317423;33;20183;-65
2021/11/29 00:38:04;;;;;;;30.60;16.70;;;4.90;99.90;;;;;;4317432;33;20312;-65
2021/11/29 00:40:31;;;;;;;30.27;16.60;;;5.00;99.90;;;;;;4317232;33;20217;-65
2021/11/29 00:42:59;;;;;;;28.80;16.87;;;5.00;99.90;;;;;;4318336;33;20256;-65
2021/11/29 00:45:26;;;;;;;29.70;16.10;;;5.00;99.90;;;;;;4318841;33;20170;-65
2021/11/29 00:47:53;;;;;;;28.53;16.10;;;5.00;99.90;;;;;;4320750;33;20145;-65
2021/11/29 00:50:21;;;;;;;32.73;17.17;;;5.00;99.90;;;;;;4320028;33;20177;-65
2021/11/29 00:52:49;;;;;;;32.33;16.67;;;5.00;99.90;;;;;;4320985;33;20178;-65
2021/11/29 00:55:18;;;;;;;33.63;17.40;;;5.00;99.90;;;;;;4321169;33;20166;-65
2021/11/29 00:57:46;;;;;;;32.87;17.37;;;5.10;99.90;;;;;;4320686;33;20195;-65
2021/11/29 01:00:18;;;;;;;34.33;17.23;;;5.10;99.90;;;;;;4320636;33;20174;-65
2021/11/29 01:02:46;;;;;;;31.77;17.43;;;5.10;99.90;;;;;;4320013;33;20188;-65
2021/11/29 01:05:13;;;;;;;34.77;17.00;;;5.10;99.90;;;;;;4321315;33;20169;-65
2021/11/29 01:07:41;;;;;;;34.80;17.43;;;5.10;99.90;;;;;;4319400;33;20190;-65
2021/11/29 01:10:10;;;;;;;34.40;18.57;;;5.10;99.90;;;;;;4319908;33;20194;-65
2021/11/29 01:12:37;;;;;;;37.43;19.33;;;5.10;99.90;;;;;;4319735;33;20171;-65
2021/11/29 01:15:08;;;;;;;39.47;18.87;;;5.10;99.90;;;;;;4319483;33;20537;-65
2021/11/29 01:17:35;;;;;;;38.27;19.87;;;5.10;99.90;;;;;;4321046;33;20222;-65
2021/11/29 01:20:04;;;;;;;38.17;19.90;;;5.10;99.90;;;;;;4320390;33;20207;-65
2021/11/29 01:22:32;;;;;;;38.93;20.20;;;5.10;99.90;;;;;;4320945;33;20142;-65
2021/11/29 01:24:59;;;;;;;40.13;20.13;;;5.10;99.90;;;;;;4318940;33;20545;-65
2021/11/29 01:27:26;;;;;;;41.30;20.03;;;5.10;99.90;;;;;;4315346;33;20476;-65
2021/11/29 01:29:53;;;;;;;40.80;19.83;;;5.10;99.90;;;;;;4318705;33;20225;-65
2021/11/29 01:32:20;;;;;;;38.10;18.93;;;5.10;99.90;;;;;;4307003;33;20173;-65
2021/11/29 01:34:47;;;;;;;41.70;19.90;;;5.10;99.90;;;;;;4306805;33;20216;-65
2021/11/29 01:37:14;;;;;;;40.27;18.97;;;5.00;99.90;;;;;;4306618;33;20580;-65
2021/11/29 01:39:41;;;;;;;39.13;19.43;;;5.10;99.90;;;;;;4308216;33;20218;-65
2021/11/29 01:42:10;;;;;;;37.23;18.77;;;5.10;99.90;;;;;;4308180;33;20232;-65
2021/11/29 01:44:37;;;;;;;37.73;18.53;;;5.10;99.90;;;;;;4306857;33;20241;-65
2021/11/29 01:47:05;;;;;;;38.97;18.47;;;5.10;99.90;;;;;;4321564;33;20149;-65
2021/11/29 01:49:33;;;;;;;42.60;20.20;;;5.10;99.90;;;;;;4320562;33;20214;-65
2021/11/29 01:52:00;;;;;;;41.50;20.87;;;5.10;99.90;;;;;;4306844;33;20186;-65
2021/11/29 01:54:29;;;;;;;44.50;21.57;;;5.10;99.90;;;;;;4308185;33;20249;-65
2021/11/29 01:56:56;;;;;;;45.53;21.67;;;4.80;99.90;;;;;;4306163;33;20170;-65
2021/11/29 01:59:23;;;;;;;45.13;22.07;;;4.80;99.90;;;;;;4320204;33;20154;-65
2021/11/29 02:01:50;;;;;;;46.33;22.93;;;4.70;99.90;;;;;;4321434;33;20177;-65
2021/11/29 02:04:18;;;;;;;49.67;23.63;;;4.60;99.90;;;;;;4319888;33;20169;-65
2021/11/29 02:06:45;;;;;;;48.33;22.20;;;4.50;99.90;;;;;;4306070;33;20533;-65
2021/11/29 02:09:12;;;;;;;45.30;20.90;;;4.40;99.90;;;;;;4306533;33;20224;-65
2021/11/29 02:11:40;;;;;;;46.47;22.47;;;4.30;99.90;;;;;;4307614;33;20173;-65
2021/11/29 02:14:08;;;;;;;46.70;21.30;;;4.30;99.90;;;;;;4307842;33;20181;-65
2021/11/29 02:16:35;;;;;;;46.03;20.57;;;4.30;99.90;;;;;;4305915;33;20182;-65
2021/11/29 02:19:06;;;;;;;48.07;21.60;;;4.30;99.90;;;;;;4319538;33;20146;-65
2021/11/29 02:21:33;;;;;;;53.43;21.70;;;4.30;99.90;;;;;;4306146;33;20268;-65
2021/11/29 02:24:05;;;;;;;50.00;20.83;;;4.10;99.90;;;;;;4306153;33;20188;-65
2021/11/29 02:26:35;;;;;;;43.67;19.93;;;4.00;99.90;;;;;;4306558;33;20195;-65
2021/11/29 02:29:07;;;;;;;44.67;20.60;;;3.90;99.90;;;;;;4320642;33;20158;-65
2021/11/29 02:31:41;;;;;;;55.10;22.17;;;3.80;99.90;;;;;;4307653;33;20499;-65
2021/11/29 02:34:21;;;;;;;45.77;19.90;;;3.90;99.90;;;;;;4307469;33;20194;-65
2021/11/29 02:36:52;;;;;;;46.60;20.50;;;3.90;99.90;;;;;;4307057;33;20182;-65
2021/11/29 02:39:19;;;;;;;42.63;18.87;;;3.90;99.90;;;;;;4307626;33;20168;-68
2021/11/29 02:41:48;;;;;;;43.63;19.50;;;3.90;99.90;;;;;;4320874;33;20216;-65
2021/11/29 02:44:16;;;;;;;44.70;20.10;;;3.80;99.90;;;;;;4306531;33;20204;-65
2021/11/29 02:46:44;;;;;;;52.90;19.73;;;3.70;99.90;;;;;;4306689;33;20261;-65
2021/11/29 02:49:13;;;;;;;61.33;19.67;;;3.70;99.90;;;;;;4307095;33;20590;-65
2021/11/29 02:51:46;;;;;;;45.47;19.43;;;3.50;99.90;;;;;;4306624;33;20177;-65
2021/11/29 02:54:15;;;;;;;44.37;19.10;;;3.50;99.90;;;;;;4306836;33;20221;-65
2021/11/29 02:56:46;;;;;;;41.63;17.90;;;3.40;99.90;;;;;;4305499;33;20181;-65
2021/11/29 02:59:20;;;;;;;38.07;17.07;;;3.30;99.90;;;;;;4306338;33;20475;-65
2021/11/29 03:01:51;;;;;;;40.27;17.73;;;3.20;99.90;;;;;;4306489;33;20188;-65
2021/11/29 03:04:23;;;;;;;43.87;16.73;;;3.20;99.90;;;;;;4309023;33;20173;-65
2021/11/29 03:06:51;;;;;;;51.47;17.67;;;3.20;99.90;;;;;;4317100;33;20189;-65
2021/11/29 03:09:19;;;;;;;41.40;17.40;;;3.10;99.90;;;;;;4319134;33;20251;-65
2021/11/29 03:11:47;;;;;;;45.40;17.77;;;2.90;99.90;;;;;;4318638;33;20591;-65
2021/11/29 03:14:15;;;;;;;41.17;17.93;;;2.90;99.90;;;;;;4317479;33;20472;-65
2021/11/29 03:16:43;;;;;;;44.40;18.30;;;2.90;99.90;;;;;;4317777;33;20358;-64
2021/11/29 03:19:10;;;;;;;42.63;19.00;;;2.90;99.90;;;;;;4317516;33;20165;-65
2021/11/29 03:21:38;;;;;;;46.77;19.80;;;2.90;99.90;;;;;;4316940;33;20252;-65
2021/11/29 03:24:07;;;;;;;48.67;19.90;;;2.80;99.90;;;;;;4317737;33;20236;-65
2021/11/29 03:26:36;;;;;;;56.40;21.77;;;2.80;99.90;;;;;;4317343;33;20173;-65
2021/11/29 03:29:08;;;;;;;51.67;21.17;;;2.60;99.90;;;;;;4318812;33;20457;-65
2021/11/29 03:31:36;;;;;;;56.33;22.87;;;2.60;99.90;;;;;;4318041;33;20200;-65
2021/11/29 03:34:05;;;;;;;46.93;19.93;;;2.50;99.90;;;;;;4318369;33;20153;-64
2021/11/29 03:36:36;;;;;;;55.03;21.20;;;2.40;99.90;;;;;;4317053;33;20561;-65
2021/11/29 03:39:08;;;;;;;52.47;20.63;;;2.30;99.90;;;;;;4317666;33;20185;-65
2021/11/29 03:41:35;;;;;;;57.47;21.63;;;2.30;99.90;;;;;;4318919;33;20187;-64
2021/11/29 03:44:04;;;;;;;57.10;21.80;;;2.20;99.90;;;;;;4317980;33;20180;-65
2021/11/29 03:46:31;;;;;;;47.93;20.97;;;2.10;99.90;;;;;;4319053;33;20523;-65
2021/11/29 03:48:58;;;;;;;53.73;20.60;;;2.00;99.90;;;;;;4318732;33;20196;-64
2021/11/29 03:51:25;;;;;;;50.47;20.53;;;2.10;99.90;;;;;;4319214;33;20476;-64
2021/11/29 03:53:54;;;;;;;44.30;18.77;;;2.10;99.90;;;;;;4317624;33;20177;-64
2021/11/29 03:56:21;;;;;;;43.87;19.07;;;2.10;99.90;;;;;;4317617;33;20270;-65
2021/11/29 03:58:48;;;;;;;45.17;18.53;;;2.10;99.90;;;;;;4318440;33;20558;-65
2021/11/29 04:01:16;;;;;;;40.23;17.40;;;2.10;99.90;;;;;;4318786;33;20241;-64
2021/11/29 04:03:43;;;;;;;42.37;17.37;;;1.90;99.90;;;;;;4318670;33;20177;-65
2021/11/29 04:06:10;;;;;;;39.10;16.03;;;1.90;99.90;;;;;;4318522;33;20169;-65
2021/11/29 04:08:37;;;;;;;38.50;16.07;;;1.90;99.90;;;;;;4317770;33;20208;-65
2021/11/29 04:11:04;;;;;;;39.53;15.33;;;2.00;99.90;;;;;;4317819;33;20169;-64
2021/11/29 04:13:32;;;;;;;35.53;14.67;;;1.90;99.90;;;;;;4319248;33;20178;-65
2021/11/29 04:15:59;;;;;;;38.77;15.70;;;1.80;99.90;;;;;;4317257;33;20185;-64
2021/11/29 04:18:27;;;;;;;38.60;15.53;;;1.80;99.90;;;;;;4317803;33;20189;-64
2021/11/29 04:20:56;;;;;;;35.47;15.40;;;1.70;99.90;;;;;;4317665;33;20184;-64
2021/11/29 04:23:24;;;;;;;35.93;14.97;;;1.70;99.90;;;;;;4319577;33;20174;-65
2021/11/29 04:25:59;;;;;;;37.43;15.60;;;1.70;99.90;;;;;;4320953;33;20283;-65
2021/11/29 04:28:28;;;;;;;43.93;15.60;;;1.70;99.90;;;;;;4320565;33;20181;-64
2021/11/29 04:30:55;;;;;;;42.50;15.70;;;1.70;99.90;;;;;;4321185;33;20161;-64
2021/11/29 04:33:23;;;;;;;33.20;14.50;;;1.60;99.90;;;;;;4319688;33;20174;-65
2021/11/29 04:35:50;;;;;;;36.97;15.13;;;1.60;99.90;;;;;;4319596;33;20200;-64
2021/11/29 04:38:17;;;;;;;34.60;15.27;;;1.70;99.90;;;;;;4320619;33;20180;-64
2021/11/29 04:40:44;;;;;;;39.17;15.10;;;1.70;99.90;;;;;;4320490;33;20173;-64
2021/11/29 04:43:12;;;;;;;40.57;15.33;;;1.70;99.90;;;;;;4320879;33;20256;-65
2021/11/29 04:45:39;;;;;;;38.97;15.73;;;1.60;99.90;;;;;;4322744;33;20525;-64
2021/11/29 04:48:06;;;;;;;31.63;15.23;;;1.50;99.90;;;;;;4320140;33;20169;-64
2021/11/29 04:50:33;;;;;;;34.60;14.40;;;1.50;99.90;;;;;;4320558;33;20169;-64
2021/11/29 04:53:01;;;;;;;39.23;14.60;;;1.50;99.90;;;;;;4319696;33;20590;-64
2021/11/29 04:55:28;;;;;;;33.73;14.57;;;1.40;99.90;;;;;;4319032;33;20512;-64
2021/11/29 04:57:55;;;;;;;35.03;13.63;;;1.40;99.90;;;;;;4320559;33;20276;-65
2021/11/29 05:00:22;;;;;;;32.67;14.10;;;1.40;99.90;;;;;;4321054;33;20199;-64
2021/11/29 05:02:50;;;;;;;36.73;14.10;;;1.30;99.90;;;;;;4320458;33;20200;-65
2021/11/29 05:05:17;;;;;;;33.83;13.47;;;1.30;99.90;;;;;;4307965;33;20227;-64
2021/11/29 05:07:45;;;;;;;33.77;13.23;;;1.30;99.90;;;;;;4320595;33;20229;-64
2021/11/29 05:10:12;;;;;;;34.67;13.70;;;1.30;99.90;;;;;;4319493;33;20250;-64
2021/11/29 05:12:39;;;;;;;30.30;12.47;;;1.20;99.90;;;;;;4319314;33;20616;-65
2021/11/29 05:15:07;;;;;;;31.43;13.13;;;1.30;99.90;;;;;;4319973;33;20172;-65
2021/11/29 05:17:34;;;;;;;35.60;14.20;;;1.30;99.90;;;;;;4320217;33;20605;-64
2021/11/29 05:20:02;;;;;;;31.53;13.33;;;1.30;99.90;;;;;;4320535;33;20172;-64
2021/11/29 05:22:30;;;;;;;31.60;13.60;;;1.20;99.90;;;;;;4319256;33;20227;-64
2021/11/29 05:24:57;;;;;;;37.23;13.70;;;1.30;99.90;;;;;;4319009;33;20265;-64
2021/11/29 05:27:24;;;;;;;31.67;13.03;;;1.30;99.90;;;;;;4318930;33;20173;-64
2021/11/29 05:29:52;;;;;;;35.07;13.57;;;1.20;99.90;;;;;;4331683;33;20217;-64
2021/11/29 05:32:19;;;;;;;36.80;13.93;;;1.20;99.90;;;;;;4319444;33;20221;-64
2021/11/29 05:34:46;;;;;;;34.60;13.90;;;1.30;99.90;;;;;;4319297;33;20181;-64
2021/11/29 05:37:22;;;;;;;43.07;15.50;;;1.30;99.90;;;;;;4320470;33;20172;-64
2021/11/29 05:39:52;;;;;;;36.80;14.27;;;1.20;99.90;;;;;;4307415;33;20245;-64
2021/11/29 05:42:40;;;;;;;35.90;13.77;;;1.20;99.90;;;;;;4318382;33;20181;-65
2021/11/29 05:45:09;;;;;;;35.53;13.97;;;1.20;99.90;;;;;;4319637;33;20173;-64
2021/11/29 05:47:36;;;;;;;38.10;14.80;;;1.20;99.90;;;;;;4319947;33;20531;-64
2021/11/29 05:50:05;;;;;;;37.80;14.20;;;1.20;99.90;;;;;;4320537;33;20417;-65
2021/11/29 05:52:33;;;;;;;35.57;13.93;;;1.20;99.90;;;;;;4319337;33;20189;-64
2021/11/29 05:55:00;;;;;;;37.67;14.80;;;1.20;99.90;;;;;;4319264;33;20515;-64
2021/11/29 05:57:28;;;;;;;38.03;14.17;;;1.20;99.90;;;;;;4318762;33;20562;-65
2021/11/29 05:59:55;;;;;;;38.13;14.23;;;1.20;99.90;;;;;;4321189;33;20141;-64
2021/11/29 06:02:22;;;;;;;35.47;14.30;;;1.20;99.90;;;;;;4318759;33;20577;-64
2021/11/29 06:04:49;;;;;;;37.83;14.83;;;1.20;99.90;;;;;;4330675;33;20527;-64
2021/11/29 06:07:16;;;;;;;35.40;14.53;;;1.10;99.90;;;;;;4318571;33;20444;-64
2021/11/29 06:09:44;;;;;;;42.07;14.83;;;1.20;99.90;;;;;;4318440;33;20523;-64
2021/11/29 06:12:11;;;;;;;40.33;15.27;;;1.20;99.90;;;;;;4319734;33;20141;-64
2021/11/29 06:14:38;;;;;;;37.17;15.13;;;1.20;99.90;;;;;;4319047;33;20176;-65
2021/11/29 06:17:05;;;;;;;41.13;15.63;;;1.20;99.90;;;;;;4320452;33;20172;-64
2021/11/29 06:19:32;;;;;;;35.73;15.67;;;1.20;99.90;;;;;;4318888;33;20205;-64
2021/11/29 06:21:59;;;;;;;42.40;16.13;;;1.20;99.90;;;;;;4320163;33;20189;-64
2021/11/29 06:24:26;;;;;;;36.93;16.50;;;1.30;99.90;;;;;;4318872;33;20188;-64
2021/11/29 06:26:53;;;;;;;36.60;15.83;;;1.30;99.90;;;;;;4318645;33;20431;-64
2021/11/29 06:29:21;;;;;;;37.83;15.60;;;1.30;99.90;;;;;;4320574;33;20239;-64
2021/11/29 06:31:48;;;;;;;38.67;16.17;;;1.20;99.90;;;;;;4319105;33;20535;-64
2021/11/29 06:34:16;;;;;;;36.97;16.17;;;1.10;99.90;;;;;;4318898;33;20544;-65
2021/11/29 06:36:43;;;;;;;40.67;15.83;;;1.20;99.90;;;;;;4311669;33;20223;-64
2021/11/29 06:39:10;;;;;;;35.90;16.07;;;1.10;99.90;;;;;;4307260;33;20173;-65
2021/11/29 06:41:37;;;;;;;36.13;15.80;;;1.20;99.90;;;;;;4306165;33;20384;-64
2021/11/29 06:44:04;;;;;;;35.27;15.53;;;1.20;99.90;;;;;;4305490;33;20192;-64
2021/11/29 06:46:32;;;;;;;33.40;16.23;;;1.20;99.90;;;;;;4306290;33;20304;-64
2021/11/29 06:49:00;;;;;;;36.80;16.20;;;1.10;99.90;;;;;;4305461;33;20173;-64
2021/11/29 06:51:27;;;;;;;38.13;16.33;;;1.10;99.90;;;;;;4320413;33;20374;-64
2021/11/29 06:53:54;;;;;;;36.30;16.23;;;1.10;99.90;;;;;;4306542;33;20260;-64
2021/11/29 06:56:21;;;;;;;37.73;16.23;;;1.10;99.90;;;;;;4305739;33;20213;-64
2021/11/29 06:58:48;;;;;;;36.67;15.93;;;1.10;99.90;;;;;;4306463;33;20243;-64
2021/11/29 07:01:16;;;;;;;35.07;16.07;;;1.10;99.90;;;;;;4305584;33;20201;-64
2021/11/29 07:03:44;;;;;;;30.90;15.17;;;1.10;99.90;;;;;;4305623;33;20227;-65
2021/11/29 07:06:12;;;;;;;34.77;16.43;;;1.20;99.90;;;;;;4319556;33;20530;-64
2021/11/29 07:08:39;;;;;;;31.10;15.50;;;1.20;99.90;;;;;;4305693;33;20177;-64
2021/11/29 07:11:09;;;;;;;32.17;15.53;;;1.10;99.90;;;;;;4305817;33;20197;-64
2021/11/29 07:13:39;;;;;;;34.63;15.93;;;1.10;99.90;;;;;;4306993;33;20210;-64
2021/11/29 07:16:06;;;;;;;30.77;14.77;;;1.10;99.90;;;;;;4318963;33;20150;-64
2021/11/29 07:18:34;;;;;;;30.90;14.67;;;1.10;99.90;;;;;;4305601;33;20184;-64
2021/11/29 07:21:01;;;;;;;29.13;14.80;;;1.10;99.90;;;;;;4306253;33;20232;-64
2021/11/29 07:23:29;;;;;;;30.03;14.40;;;1.10;99.90;;;;;;4305692;33;20168;-65
2021/11/29 07:25:56;;;;;;;32.47;14.30;;;1.10;99.90;;;;;;4306770;33;20236;-64
2021/11/29 07:28:24;;;;;;;30.83;14.13;;;1.10;99.90;;;;;;4306658;33;20283;-64
2021/11/29 07:30:51;;;;;;;29.10;14.83;;;1.20;99.90;;;;;;4305491;33;20181;-64
2021/11/29 07:33:19;;;;;;;29.10;14.90;;;1.30;99.90;;;;;;4305633;33;20250;-64
2021/11/29 07:35:47;;;;;;;28.17;14.13;;;1.30;99.90;;;;;;4305588;33;20515;-64
2021/11/29 07:38:14;;;;;;;26.33;14.07;;;1.30;99.90;;;;;;4319123;33;20149;-65
2021/11/29 07:40:41;;;;;;;25.13;13.37;;;1.30;99.90;;;;;;4319093;33;20252;-64
2021/11/29 07:43:10;;;;;;;26.07;13.67;;;1.30;99.90;;;;;;4319853;33;20387;-64
2021/11/29 07:45:39;;;;;;;26.33;13.70;;;1.20;99.90;;;;;;4305807;33;20256;-64
2021/11/29 07:48:06;;;;;;;24.50;13.03;;;1.20;99.90;;;;;;4306557;33;20240;-64
2021/11/29 07:50:34;;;;;;;24.47;13.07;;;1.20;99.90;;;;;;4306212;33;20236;-64
2021/11/29 07:53:02;;;;;;;24.33;13.03;;;1.20;99.90;;;;;;4318937;33;20146;-64
2021/11/29 07:55:30;;;;;;;27.40;14.17;;;1.20;99.90;;;;;;4319472;33;20188;-64
2021/11/29 07:58:02;;;;;;;24.17;12.87;;;1.20;99.90;;;;;;4308994;33;20177;-65
2021/11/29 08:00:32;;;;;;;21.93;12.03;;;1.20;99.90;;;;;;4309096;33;20196;-64
2021/11/29 08:03:01;;;;;;;23.30;12.33;;;1.20;99.90;;;;;;4308161;33;20195;-64
2021/11/29 08:05:31;;;;;;;21.90;11.37;;;1.20;99.90;;;;;;4308629;33;20193;-65
2021/11/29 08:08:00;;;;;;;21.33;12.00;;;1.20;99.90;;;;;;4308333;33;20533;-64
2021/11/29 08:10:28;;;;;;;20.50;12.00;;;1.10;99.90;;;;;;4308934;33;20208;-64
2021/11/29 08:12:55;;;;;;;24.43;12.10;;;1.10;99.90;;;;;;4308693;33;20529;-64
2021/11/29 08:15:23;;;;;;;22.17;11.00;;;1.20;99.90;;;;;;4308558;33;20204;-64
2021/11/29 08:17:50;;;;;;;24.70;11.97;;;1.20;99.90;;;;;;4308066;33;20181;-64
2021/11/29 08:20:24;;;;;;;24.97;11.60;;;1.20;99.90;;;;;;4308755;33;20188;-65
2021/11/29 08:22:55;;;;;;;23.67;11.73;;;1.20;99.90;;;;;;4307478;33;20184;-64
2021/11/29 08:25:23;;;;;;;21.17;11.70;;;1.20;99.90;;;;;;4321258;33;20525;-65
2021/11/29 08:27:51;;;;;;;23.80;12.43;;;1.30;99.90;;;;;;4307924;33;20201;-64
2021/11/29 08:30:21;;;;;;;24.10;12.77;;;1.30;99.90;;;;;;4307597;33;20284;-65
2021/11/29 08:32:49;;;;;;;24.90;12.27;;;1.30;99.90;;;;;;4307553;33;20451;-65
2021/11/29 08:35:17;;;;;;;23.73;12.87;;;1.20;99.90;;;;;;4308505;33;20455;-65
2021/11/29 08:37:50;;;;;;;26.60;13.20;;;1.20;99.90;;;;;;4321140;33;20352;-66
2021/11/29 08:40:21;;;;;;;27.73;13.43;;;1.20;99.90;;;;;;4307545;33;20177;-64
2021/11/29 08:42:48;;;;;;;26.07;12.90;;;1.30;99.90;;;;;;4307437;33;20199;-64
2021/11/29 08:45:15;;;;;;;27.10;12.47;;;1.20;99.90;;;;;;4308370;33;20220;-64
2021/11/29 08:47:42;;;;;;;26.20;12.77;;;1.20;99.90;;;;;;4307009;33;20232;-64
2021/11/29 08:50:10;;;;;;;28.77;12.97;;;1.20;99.90;;;;;;4308968;33;20173;-64
2021/11/29 08:53:01;;;;;;;28.93;12.73;;;1.20;99.90;;;;;;4320262;33;20132;-64
2021/11/29 08:55:28;;;;;;;27.67;12.70;;;1.20;99.90;;;;;;4307320;33;20192;-65
2021/11/29 08:57:56;;;;;;;28.77;13.57;;;1.20;99.90;;;;;;4308690;33;20185;-64
2021/11/29 09:00:24;;;;;;;29.63;13.50;;;1.20;99.90;;;;;;4308516;33;20221;-64
2021/11/29 09:02:51;;;;;;;24.33;12.50;;;1.20;99.90;;;;;;4307976;33;20176;-64
2021/11/29 09:05:22;;;;;;;24.40;12.20;;;1.10;99.90;;;;;;4308310;33;20172;-64
2021/11/29 09:07:49;;;;;;;28.07;12.70;;;1.20;99.90;;;;;;4306702;33;20211;-64
2021/11/29 09:10:17;;;;;;;24.20;11.57;;;1.20;99.90;;;;;;4307494;33;20193;-64
2021/11/29 09:12:45;;;;;;;24.03;11.73;;;1.20;99.90;;;;;;4319212;33;20180;-65
2021/11/29 09:15:14;;;;;;;23.13;11.40;;;1.20;99.90;;;;;;4320623;33;20480;-64
2021/11/29 09:17:41;;;;;;;27.03;12.40;;;1.30;99.90;;;;;;4306673;33;20205;-64
2021/11/29 09:20:13;;;;;;;23.83;11.50;;;1.20;99.90;;;;;;4307080;33;20249;-64
2021/11/29 09:22:41;;;;;;;25.93;11.90;;;1.20;99.90;;;;;;4307051;33;20177;-64
2021/11/29 09:25:10;;;;;;;28.07;12.20;;;1.20;99.90;;;;;;4307713;33;20185;-64
2021/11/29 09:27:37;;;;;;;26.67;12.83;;;1.20;99.90;;;;;;4306769;33;20191;-64
2021/11/29 09:30:06;;;;;;;25.70;11.57;;;1.30;99.90;;;;;;4307563;33;20220;-64
2021/11/29 09:32:37;;;;;;;27.17;12.90;;;1.30;99.90;;;;;;4306845;33;20204;-64
2021/11/29 09:35:07;;;;;;;27.80;12.60;;;1.20;99.90;;;;;;4308361;33;20173;-65
2021/11/29 09:37:36;;;;;;;27.40;12.23;;;1.20;99.90;;;;;;4307373;33;20238;-64
2021/11/29 09:40:09;;;;;;;24.13;11.70;;;1.20;99.90;;;;;;4307056;33;20303;-65
2021/11/29 09:42:37;;;;;;;28.90;13.43;;;1.20;99.90;;;;;;4308037;33;20191;-64
2021/11/29 09:45:10;;;;;;;27.53;12.27;;;1.20;99.90;;;;;;4321378;33;20208;-64
2021/11/29 09:47:37;;;;;;;30.20;13.33;;;1.20;99.90;;;;;;4320526;33;20138;-64
2021/11/29 09:50:05;;;;;;;27.80;12.97;;;1.20;99.90;;;;;;4306409;33;20216;-64
2021/11/29 09:52:33;;;;;;;28.37;12.63;;;1.10;99.90;;;;;;4307849;33;20538;-64
2021/11/29 09:55:00;;;;;;;28.07;11.73;;;1.10;99.90;;;;;;4320156;33;20161;-64
2021/11/29 09:57:28;;;;;;;23.83;11.37;;;1.10;99.90;;;;;;4306368;33;20176;-64
2021/11/29 09:59:55;;;;;;;26.30;11.80;;;1.10;99.90;;;;;;4306294;33;20207;-65
2021/11/29 10:02:22;;;;;;;25.57;12.53;;;1.10;99.90;;;;;;4326160;33;20189;-65
2021/11/29 10:04:50;;;;;;;29.07;13.10;;;1.10;99.90;;;;;;4307661;33;20346;-65
2021/11/29 10:07:32;;;;;;;27.10;12.40;;;1.10;99.90;;;;;;4308423;33;20165;-65
2021/11/29 10:10:18;;;;;;;29.23;12.63;;;1.20;99.90;;;;;;4307784;33;20181;-65
2021/11/29 10:12:50;;;;;;;26.40;12.03;;;1.20;99.90;;;;;;4306165;33;20525;-65
2021/11/29 10:15:21;;;;;;;27.23;12.60;;;1.20;99.90;;;;;;4306467;33;20165;-65
2021/11/29 10:18:01;;;;;;;27.13;12.57;;;1.20;99.90;;;;;;4307130;33;20177;-66
2021/11/29 10:20:46;;;;;;;27.50;12.80;;;1.20;99.90;;;;;;4306602;33;20275;-65
2021/11/29 10:23:14;;;;;;;26.77;12.90;;;1.20;99.90;;;;;;4319349;33;20149;-65
2021/11/29 10:25:43;;;;;;;25.50;11.63;;;1.30;99.90;;;;;;4307394;33;20429;-65
2021/11/29 10:28:27;;;;;;;25.30;11.83;;;1.30;99.90;;;;;;4319684;33;20164;-65
2021/11/29 10:31:27;;;;;;;26.57;11.70;;;1.20;99.90;;;;;;4306160;33;20275;-65
2021/11/29 10:34:17;;;;;;;25.83;11.13;;;1.20;99.90;;;;;;4306184;33;20173;-64
2021/11/29 10:36:51;;;;;;;24.40;11.47;;;1.20;99.90;;;;;;4306060;33;20208;-66
2021/11/29 10:39:19;;;;;;;27.10;12.20;;;1.20;99.90;;;;;;4306480;33;20192;-65
2021/11/29 10:41:49;;;;;;;25.37;11.70;;;1.20;99.90;;;;;;4307673;33;20181;-64
2021/11/29 10:44:19;;;;;;;27.33;12.10;;;1.20;99.90;;;;;;4307141;33;20223;-64
2021/11/29 10:46:53;;;;;;;25.70;11.87;;;1.20;99.90;;;;;;4319514;33;20141;-64
2021/11/29 10:49:26;;;;;;;23.90;12.47;;;1.20;99.90;;;;;;4306395;33;20173;-65
2021/11/29 10:51:59;;;;;;;26.30;12.23;;;1.20;99.90;;;;;;4307087;33;20188;-64
2021/11/29 10:54:30;;;;;;;27.00;12.23;;;1.20;99.90;;;;;;4318177;33;20260;-65
2021/11/29 10:56:58;;;;;;;25.87;11.47;;;1.20;99.90;;;;;;4305599;33;20188;-65
2021/11/29 10:59:28;;;;;;;26.60;12.00;;;1.30;99.90;;;;;;4306659;33;20189;-64
2021/11/29 11:02:07;;;;;;;29.60;12.43;;;1.30;99.90;;;;;;4306151;33;20203;-65
2021/11/29 11:04:38;;;;;;;25.57;12.03;;;1.30;99.90;;;;;;4305948;33;20263;-65
2021/11/29 11:07:21;;;;;;;28.07;12.80;;;1.30;99.90;;;;;;4306441;33;20177;-64
2021/11/29 11:09:56;;;;;;;26.53;12.13;;;1.30;99.90;;;;;;4307074;33;20222;-65
2021/11/29 11:12:33;;;;;;;28.40;12.70;;;1.30;99.90;;;;;;4306097;33;20169;-64
2021/11/29 11:15:08;;;;;;;27.33;12.37;;;1.20;99.90;;;;;;4306159;33;20180;-64
2021/11/29 11:17:58;;;;;;;28.23;12.30;;;1.30;99.90;;;;;;4305512;33;20228;-65
2021/11/29 11:20:26;;;;;;;24.97;12.33;;;1.30;99.90;;;;;;4304875;33;20248;-64
2021/11/29 11:22:55;;;;;;;25.87;12.53;;;1.30;99.90;;;;;;4317669;33;20207;-64
2021/11/29 11:25:26;;;;;;;27.13;12.47;;;1.20;99.90;;;;;;4318042;33;20257;-64
2021/11/29 11:28:08;;;;;;;27.17;12.33;;;1.30;99.90;;;;;;4304716;33;20180;-64
2021/11/29 11:30:38;;;;;;;26.53;11.80;;;1.30;99.90;;;;;;4318588;33;20181;-64
2021/11/29 11:33:15;;;;;;;28.23;12.90;;;1.30;99.90;;;;;;4305122;33;20185;-64
2021/11/29 11:35:46;;;;;;;24.63;11.77;;;1.30;99.90;;;;;;4305441;33;20203;-64
2021/11/29 11:38:21;;;;;;;23.23;11.63;;;1.30;99.90;;;;;;4318429;33;20208;-65
2021/11/29 11:40:51;;;;;;;23.33;11.13;;;1.30;99.90;;;;;;4304997;33;20255;-64
2021/11/29 11:43:21;;;;;;;25.13;11.90;;;1.40;99.90;;;;;;4306290;33;20177;-65
2021/11/29 11:45:50;;;;;;;22.47;11.07;;;1.40;99.90;;;;;;4303578;33;20207;-64
2021/11/29 11:48:21;;;;;;;25.57;11.80;;;1.40;99.90;;;;;;4304505;33;20173;-64
2021/11/29 11:50:52;;;;;;;22.37;11.37;;;1.50;99.90;;;;;;4303732;33;20445;-64
2021/11/29 11:53:20;;;;;;;25.07;11.73;;;1.50;99.90;;;;;;4304187;33;20220;-64
2021/11/29 11:55:50;;;;;;;24.33;11.23;;;1.60;99.90;;;;;;4304056;33;20177;-64
2021/11/29 11:58:27;;;;;;;25.87;11.40;;;1.50;99.90;;;;;;4304468;33;20227;-65
2021/11/29 12:01:01;;;;;;;22.53;11.10;;;1.50;99.90;;;;;;4304421;33;20204;-65
2021/11/29 12:03:30;;;;;;;23.80;11.70;;;1.50;99.90;;;;;;4305483;33;20173;-65
2021/11/29 12:06:00;;;;;;;23.20;11.20;;;1.50;99.90;;;;;;4317250;33;20478;-65
2021/11/29 12:08:33;;;;;;;25.57;12.30;;;1.60;99.90;;;;;;4318132;33;20226;-64
2021/11/29 12:11:03;;;;;;;28.47;12.83;;;1.60;99.90;;;;;;4316055;33;20332;-64
2021/11/29 12:13:43;;;;;;;26.03;11.83;;;1.60;99.90;;;;;;4317319;33;20192;-65
2021/11/29 12:16:12;;;;;;;25.20;12.43;;;1.60;99.90;;;;;;4317372;33;20180;-64
2021/11/29 12:18:40;;;;;;;28.43;12.43;;;1.60;99.90;;;;;;4316919;33;20255;-65
2021/11/29 12:21:20;;;;;;;26.83;12.70;;;1.60;99.90;;;;;;4317107;33;20173;-65
2021/11/29 12:24:03;;;;;;;29.60;13.13;;;1.60;99.90;;;;;;4316609;33;20220;-65
2021/11/29 12:26:46;;;;;;;26.27;11.83;;;1.60;99.90;;;;;;4316503;33;20173;-64
2021/11/29 12:29:23;;;;;;;25.90;11.70;;;1.60;99.90;;;;;;4317297;33;20198;-64
2021/11/29 12:32:05;;;;;;;27.83;12.67;;;1.60;99.90;;;;;;4317717;33;20177;-64
2021/11/29 12:34:48;;;;;;;24.87;12.53;;;1.60;99.90;;;;;;4316943;33;20173;-65
2021/11/29 12:37:35;;;;;;;29.07;13.23;;;1.70;99.90;;;;;;4318288;33;20207;-64
2021/11/29 12:40:13;;;;;;;27.40;12.37;;;1.70;99.90;;;;;;4316834;33;20199;-65
2021/11/29 12:42:40;;;;;;;27.60;12.50;;;1.70;99.90;;;;;;4320219;33;20421;-64
2021/11/29 12:45:07;;;;;;;26.10;12.67;;;1.70;99.90;;;;;;4319526;33;20204;-64
2021/11/29 12:47:47;;;;;;;25.43;12.53;;;1.70;99.90;;;;;;4319400;33;20212;-64